Terminal Aerodrome Forecast
Issued by NWS Nashville, TN

Home | Current Version | Previous Version | Text Only | Print | Product List | Glossary On
Versions: 1 2 3 4 5 6 7 8 9 10 11 12 13 14 15 16 17 18 19
000
FTUS44 KOHX 230600
TAFBNA
TAF AMD
KBNA 230620Z 2306/2406 18005KT P6SM BKN250
     FM231600 25003KT P6SM BKN050
     FM232300 21005KT P6SM VCTS BKN050CB=

USA.gov is the U.S. government's official web portal to all federal, state and local government web resources and services.